Selma, Texas
Current Conditions -  °F | °C
As of 8:35 PM on Thursday 20 Nov 2014 (Local Time) from KRND Reporting Station
Overcast Overcast  
Wind Chill: 64°   Ceiling: 400
Heat Index: 64°   Visibility: 9mi
Dew Point: 63°   Wind: 6mph
Humidity: 94%   Direction: 130°SE
Pressure: 30.06"   Gusts: NA
Location:  29.5872°N, 98.2801°W
Report Text: KRND 210235Z AUTO 13005KT 9SM R32R/5500FT OVC004 18/17 A3006 RMK AO2 OVC V BKN
Loading
Personal Weather Stations






























Interactive Weather Map New forecast layout! Learn more

10-Day Weather Forecast

Advertisements
Track Severe Weather on mobile